sensor_id;sensor_type;location;lat;lon;timestamp;pressure;altitude;pressure_sealevel;temperature;humidity
12757;BME280;31601;48.042;12.240;2022-08-26T00:01:12;95960.59;;;20.94;68.34
12757;BME280;31601;48.042;12.240;2022-08-26T00:03:39;95956.09;;;20.95;68.48
12757;BME280;31601;48.042;12.240;2022-08-26T00:06:07;95950.13;;;20.82;68.90
12757;BME280;31601;48.042;12.240;2022-08-26T00:08:33;95950.69;;;20.89;68.41
12757;BME280;31601;48.042;12.240;2022-08-26T00:11:02;95951.22;;;20.86;68.82
12757;BME280;31601;48.042;12.240;2022-08-26T00:13:29;95950.59;;;20.74;69.14
12757;BME280;31601;48.042;12.240;2022-08-26T00:15:56;95953.25;;;20.74;69.01
12757;BME280;31601;48.042;12.240;2022-08-26T00:18:22;95945.69;;;20.61;69.15
12757;BME280;31601;48.042;12.240;2022-08-26T00:20:49;95940.94;;;20.68;68.74
12757;BME280;31601;48.042;12.240;2022-08-26T00:23:17;95950.81;;;20.67;69.37
12757;BME280;31601;48.042;12.240;2022-08-26T00:25:43;95945.75;;;20.71;69.08
12757;BME280;31601;48.042;12.240;2022-08-26T00:28:10;95942.06;;;20.72;69.02
12757;BME280;31601;48.042;12.240;2022-08-26T00:30:38;95951.59;;;20.68;68.84
12757;BME280;31601;48.042;12.240;2022-08-26T00:33:04;95950.59;;;20.74;68.55
12757;BME280;31601;48.042;12.240;2022-08-26T00:35:31;95952.19;;;20.75;68.64
12757;BME280;31601;48.042;12.240;2022-08-26T00:37:59;95950.06;;;20.77;68.79
12757;BME280;31601;48.042;12.240;2022-08-26T00:40:30;95947.97;;;20.79;68.48
12757;BME280;31601;48.042;12.240;2022-08-26T00:42:58;95948.00;;;20.84;68.60
12757;BME280;31601;48.042;12.240;2022-08-26T00:45:25;95936.53;;;20.84;68.38
12757;BME280;31601;48.042;12.240;2022-08-26T00:47:55;95945.59;;;20.83;68.68
12757;BME280;31601;48.042;12.240;2022-08-26T00:50:26;95950.16;;;20.87;68.73
12757;BME280;31601;48.042;12.240;2022-08-26T00:52:56;95951.78;;;20.88;68.40
12757;BME280;31601;48.042;12.240;2022-08-26T00:55:27;95942.69;;;20.89;68.84
12757;BME280;31601;48.042;12.240;2022-08-26T00:57:56;95943.81;;;20.93;68.51
12757;BME280;31601;48.042;12.240;2022-08-26T01:00:25;95954.44;;;20.88;68.41
12757;BME280;31601;48.042;12.240;2022-08-26T01:02:53;95945.88;;;20.86;68.40
12757;BME280;31601;48.042;12.240;2022-08-26T01:05:20;95946.44;;;20.88;68.11
12757;BME280;31601;48.042;12.240;2022-08-26T01:07:47;95947.22;;;20.89;68.38
12757;BME280;31601;48.042;12.240;2022-08-26T01:10:17;95940.53;;;20.86;67.72
12757;BME280;31601;48.042;12.240;2022-08-26T01:12:47;95939.16;;;20.79;67.93
12757;BME280;31601;48.042;12.240;2022-08-26T01:15:19;95940.50;;;20.76;68.27
12757;BME280;31601;48.042;12.240;2022-08-26T01:17:46;95940.16;;;20.67;68.53
12757;BME280;31601;48.042;12.240;2022-08-26T01:20:24;95949.00;;;20.73;68.60
12757;BME280;31601;48.042;12.240;2022-08-26T01:22:55;95944.34;;;20.63;68.52
12757;BME280;31601;48.042;12.240;2022-08-26T01:25:24;95947.09;;;20.41;68.76
12757;BME280;31601;48.042;12.240;2022-08-26T01:27:51;95944.50;;;20.19;69.08
12757;BME280;31601;48.042;12.240;2022-08-26T01:30:21;95939.22;;;20.24;68.65
12757;BME280;31601;48.042;12.240;2022-08-26T01:32:49;95941.50;;;20.10;68.34
12757;BME280;31601;48.042;12.240;2022-08-26T01:35:17;95938.91;;;19.93;68.68
12757;BME280;31601;48.042;12.240;2022-08-26T01:37:44;95947.81;;;19.60;68.64
12757;BME280;31601;48.042;12.240;2022-08-26T01:40:17;95948.56;;;19.55;68.60
12757;BME280;31601;48.042;12.240;2022-08-26T01:42:46;95944.91;;;19.61;69.00
12757;BME280;31601;48.042;12.240;2022-08-26T01:45:16;95945.53;;;19.68;69.51
12757;BME280;31601;48.042;12.240;2022-08-26T01:47:44;95953.69;;;19.79;69.17
12757;BME280;31601;48.042;12.240;2022-08-26T01:50:15;95943.88;;;19.84;69.39
12757;BME280;31601;48.042;12.240;2022-08-26T01:52:44;95949.81;;;19.92;69.10
12757;BME280;31601;48.042;12.240;2022-08-26T01:55:13;95938.16;;;19.98;68.99
12757;BME280;31601;48.042;12.240;2022-08-26T01:57:41;95943.28;;;20.04;69.33
12757;BME280;31601;48.042;12.240;2022-08-26T02:00:11;95951.03;;;20.06;69.08
12757;BME280;31601;48.042;12.240;2022-08-26T02:02:39;95951.09;;;20.11;69.17
12757;BME280;31601;48.042;12.240;2022-08-26T02:05:07;95948.09;;;20.08;69.39
12757;BME280;31601;48.042;12.240;2022-08-26T02:07:37;95947.84;;;20.09;69.07
12757;BME280;31601;48.042;12.240;2022-08-26T02:10:05;95956.97;;;20.13;68.93
12757;BME280;31601;48.042;12.240;2022-08-26T02:12:33;95954.84;;;20.15;68.89
12757;BME280;31601;48.042;12.240;2022-08-26T02:15:03;95944.50;;;20.19;68.88
12757;BME280;31601;48.042;12.240;2022-08-26T02:17:34;95946.91;;;20.20;69.09
12757;BME280;31601;48.042;12.240;2022-08-26T02:20:03;95955.97;;;20.19;68.85
12757;BME280;31601;48.042;12.240;2022-08-26T02:22:31;95953.53;;;20.18;68.54
12757;BME280;31601;48.042;12.240;2022-08-26T02:25:03;95951.13;;;20.16;68.39
12757;BME280;31601;48.042;12.240;2022-08-26T02:27:35;95951.63;;;20.13;68.20
12757;BME280;31601;48.042;12.240;2022-08-26T02:30:07;95947.81;;;20.04;68.36
12757;BME280;31601;48.042;12.240;2022-08-26T02:32:34;95947.94;;;19.92;68.51
12757;BME280;31601;48.042;12.240;2022-08-26T02:35:01;95948.53;;;19.94;68.33
12757;BME280;31601;48.042;12.240;2022-08-26T02:37:28;95946.78;;;19.83;68.79
12757;BME280;31601;48.042;12.240;2022-08-26T02:39:55;95948.69;;;19.65;68.80
12757;BME280;31601;48.042;12.240;2022-08-26T02:42:21;95951.56;;;19.59;68.93
12757;BME280;31601;48.042;12.240;2022-08-26T02:44:49;95952.66;;;19.63;68.92
12757;BME280;31601;48.042;12.240;2022-08-26T02:47:16;95949.19;;;19.62;69.25
12757;BME280;31601;48.042;12.240;2022-08-26T02:49:43;95957.47;;;19.66;69.05
12757;BME280;31601;48.042;12.240;2022-08-26T02:52:10;95952.41;;;19.64;68.72
12757;BME280;31601;48.042;12.240;2022-08-26T02:54:37;95951.56;;;19.59;68.95
12757;BME280;31601;48.042;12.240;2022-08-26T02:57:04;95951.13;;;19.45;69.24
12757;BME280;31601;48.042;12.240;2022-08-26T02:59:31;95947.78;;;19.55;69.06
12757;BME280;31601;48.042;12.240;2022-08-26T03:01:58;95945.59;;;19.52;69.19
12757;BME280;31601;48.042;12.240;2022-08-26T03:04:25;95954.72;;;19.56;68.89
12757;BME280;31601;48.042;12.240;2022-08-26T03:06:52;95943.81;;;19.57;69.08
12757;BME280;31601;48.042;12.240;2022-08-26T03:09:19;95942.75;;;19.58;68.65
12757;BME280;31601;48.042;12.240;2022-08-26T03:11:46;95947.28;;;19.58;68.69
12757;BME280;31601;48.042;12.240;2022-08-26T03:14:12;95938.50;;;19.57;68.55
12757;BME280;31601;48.042;12.240;2022-08-26T03:16:40;95937.19;;;19.60;68.64
12757;BME280;31601;48.042;12.240;2022-08-26T03:19:09;95936.09;;;19.56;68.91
12757;BME280;31601;48.042;12.240;2022-08-26T03:21:36;95937.50;;;19.63;69.07
12757;BME280;31601;48.042;12.240;2022-08-26T03:24:03;95942.88;;;19.68;69.18
12757;BME280;31601;48.042;12.240;2022-08-26T03:26:30;95941.91;;;19.53;69.64
12757;BME280;31601;48.042;12.240;2022-08-26T03:28:56;95936.38;;;19.59;69.30
12757;BME280;31601;48.042;12.240;2022-08-26T03:31:41;95930.19;;;19.54;69.68
12757;BME280;31601;48.042;12.240;2022-08-26T03:34:08;95930.75;;;19.56;69.41
12757;BME280;31601;48.042;12.240;2022-08-26T03:36:35;95942.06;;;19.46;70.02
12757;BME280;31601;48.042;12.240;2022-08-26T03:39:02;95935.56;;;19.14;69.96
12757;BME280;31601;48.042;12.240;2022-08-26T03:41:29;95934.31;;;19.22;68.80
12757;BME280;31601;48.042;12.240;2022-08-26T03:43:56;95930.69;;;19.28;69.15
12757;BME280;31601;48.042;12.240;2022-08-26T03:46:23;95933.09;;;19.30;69.51
12757;BME280;31601;48.042;12.240;2022-08-26T03:48:49;95926.53;;;19.16;70.08
12757;BME280;31601;48.042;12.240;2022-08-26T03:51:18;95933.16;;;18.96;70.19
12757;BME280;31601;48.042;12.240;2022-08-26T03:53:45;95938.53;;;19.01;69.29
12757;BME280;31601;48.042;12.240;2022-08-26T03:56:11;95936.88;;;18.95;69.34
12757;BME280;31601;48.042;12.240;2022-08-26T03:58:39;95936.00;;;18.72;69.74
12757;BME280;31601;48.042;12.240;2022-08-26T04:01:06;95941.13;;;18.79;69.41
12757;BME280;31601;48.042;12.240;2022-08-26T04:03:32;95939.94;;;18.87;69.01
12757;BME280;31601;48.042;12.240;2022-08-26T04:06:17;95943.97;;;18.89;68.85
12757;BME280;31601;48.042;12.240;2022-08-26T04:08:44;95937.13;;;18.93;68.81
12757;BME280;31601;48.042;12.240;2022-08-26T04:11:15;95937.22;;;18.99;68.67
12757;BME280;31601;48.042;12.240;2022-08-26T04:13:43;95931.47;;;19.07;68.56
12757;BME280;31601;48.042;12.240;2022-08-26T04:16:10;95938.88;;;19.05;68.14
12757;BME280;31601;48.042;12.240;2022-08-26T04:18:36;95936.22;;;19.05;68.45
12757;BME280;31601;48.042;12.240;2022-08-26T04:21:03;95939.94;;;18.87;69.48
12757;BME280;31601;48.042;12.240;2022-08-26T04:23:31;95940.88;;;18.81;69.59
12757;BME280;31601;48.042;12.240;2022-08-26T04:25:58;95942.84;;;18.85;69.42
12757;BME280;31601;48.042;12.240;2022-08-26T04:28:25;95938.19;;;18.92;69.21
12757;BME280;31601;48.042;12.240;2022-08-26T04:30:51;95938.41;;;18.91;69.46
12757;BME280;31601;48.042;12.240;2022-08-26T04:33:18;95942.91;;;18.90;69.68
12757;BME280;31601;48.042;12.240;2022-08-26T04:35:46;95943.13;;;19.06;69.37
12757;BME280;31601;48.042;12.240;2022-08-26T04:38:12;95943.28;;;19.16;69.21
12757;BME280;31601;48.042;12.240;2022-08-26T04:40:43;95939.13;;;19.03;69.89
12757;BME280;31601;48.042;12.240;2022-08-26T04:43:09;95950.88;;;18.90;70.71
12757;BME280;31601;48.042;12.240;2022-08-26T04:45:36;95945.72;;;19.01;70.04
12757;BME280;31601;48.042;12.240;2022-08-26T04:48:03;95944.72;;;19.24;69.12
12757;BME280;31601;48.042;12.240;2022-08-26T04:50:30;95936.06;;;19.33;68.63
12757;BME280;31601;48.042;12.240;2022-08-26T04:52:57;95947.03;;;19.37;68.90
12757;BME280;31601;48.042;12.240;2022-08-26T04:55:23;95951.56;;;19.59;68.60
12757;BME280;31601;48.042;12.240;2022-08-26T04:57:51;95949.06;;;19.74;68.21
12757;BME280;31601;48.042;12.240;2022-08-26T05:00:18;95947.59;;;19.83;68.06
12757;BME280;31601;48.042;12.240;2022-08-26T05:02:46;95939.78;;;19.99;68.31
12757;BME280;31601;48.042;12.240;2022-08-26T05:05:13;95941.84;;;20.19;67.87
12757;BME280;31601;48.042;12.240;2022-08-26T05:07:40;95941.16;;;20.34;67.87
12757;BME280;31601;48.042;12.240;2022-08-26T05:10:07;95947.81;;;20.31;68.39
12757;BME280;31601;48.042;12.240;2022-08-26T05:12:34;95956.13;;;20.40;68.24
12757;BME280;31601;48.042;12.240;2022-08-26T05:15:02;95954.56;;;20.39;68.89
12757;BME280;31601;48.042;12.240;2022-08-26T05:17:28;95957.38;;;20.60;68.54
12757;BME280;31601;48.042;12.240;2022-08-26T05:19:55;95960.69;;;20.67;68.39
12757;BME280;31601;48.042;12.240;2022-08-26T05:22:22;95956.22;;;20.78;68.82
12757;BME280;31601;48.042;12.240;2022-08-26T05:24:48;95959.00;;;20.93;68.45
12757;BME280;31601;48.042;12.240;2022-08-26T05:27:15;95960.47;;;20.79;68.99
12757;BME280;31601;48.042;12.240;2022-08-26T05:29:41;95961.97;;;21.02;68.55
12757;BME280;31601;48.042;12.240;2022-08-26T05:32:09;95959.31;;;21.02;68.62
12757;BME280;31601;48.042;12.240;2022-08-26T05:34:35;95956.38;;;20.98;68.38
12757;BME280;31601;48.042;12.240;2022-08-26T05:37:02;95961.88;;;20.86;68.50
12757;BME280;31601;48.042;12.240;2022-08-26T05:39:30;95964.16;;;20.72;68.48
12757;BME280;31601;48.042;12.240;2022-08-26T05:41:57;95964.06;;;20.30;69.29
12757;BME280;31601;48.042;12.240;2022-08-26T05:44:23;95964.06;;;20.30;69.24
12757;BME280;31601;48.042;12.240;2022-08-26T05:46:50;95964.19;;;20.45;69.43
12757;BME280;31601;48.042;12.240;2022-08-26T05:49:18;95960.66;;;20.39;69.99
12757;BME280;31601;48.042;12.240;2022-08-26T05:51:44;95961.66;;;20.61;69.39
12757;BME280;31601;48.042;12.240;2022-08-26T05:54:11;95963.59;;;20.65;69.45
12757;BME280;31601;48.042;12.240;2022-08-26T05:56:38;95967.72;;;20.83;69.19
12757;BME280;31601;48.042;12.240;2022-08-26T05:59:05;95964.16;;;21.10;68.60
12757;BME280;31601;48.042;12.240;2022-08-26T06:01:33;95964.25;;;21.25;67.67
12757;BME280;31601;48.042;12.240;2022-08-26T06:04:00;95959.88;;;21.52;67.23
12757;BME280;31601;48.042;12.240;2022-08-26T06:06:29;95967.09;;;21.51;67.39
12757;BME280;31601;48.042;12.240;2022-08-26T06:08:57;95965.00;;;21.58;67.26
12757;BME280;31601;48.042;12.240;2022-08-26T06:11:25;95967.09;;;21.56;67.43
12757;BME280;31601;48.042;12.240;2022-08-26T06:13:52;95970.13;;;21.75;67.24
12757;BME280;31601;48.042;12.240;2022-08-26T06:16:21;95967.22;;;21.87;66.90
12757;BME280;31601;48.042;12.240;2022-08-26T06:18:50;95964.91;;;22.11;66.30
12757;BME280;31601;48.042;12.240;2022-08-26T06:21:18;95966.22;;;22.04;66.36
12757;BME280;31601;48.042;12.240;2022-08-26T06:23:48;95973.72;;;22.22;65.54
12757;BME280;31601;48.042;12.240;2022-08-26T06:26:33;95973.72;;;22.17;66.17
12757;BME280;31601;48.042;12.240;2022-08-26T06:29:01;95983.97;;;22.56;64.98
12757;BME280;31601;48.042;12.240;2022-08-26T06:31:28;95978.63;;;22.87;64.28
12757;BME280;31601;48.042;12.240;2022-08-26T06:33:54;95972.72;;;22.80;63.85
12757;BME280;31601;48.042;12.240;2022-08-26T06:36:24;95975.16;;;23.17;63.70
12757;BME280;31601;48.042;12.240;2022-08-26T06:38:53;95978.56;;;23.38;62.59
12757;BME280;31601;48.042;12.240;2022-08-26T06:41:21;95972.94;;;23.45;62.11
12757;BME280;31601;48.042;12.240;2022-08-26T06:43:49;95977.16;;;23.67;60.78
12757;BME280;31601;48.042;12.240;2022-08-26T06:46:19;95969.25;;;24.01;59.75
12757;BME280;31601;48.042;12.240;2022-08-26T06:48:46;95963.81;;;24.17;58.38
12757;BME280;31601;48.042;12.240;2022-08-26T06:51:15;95967.66;;;24.05;57.12
12757;BME280;31601;48.042;12.240;2022-08-26T06:53:43;95966.66;;;23.86;57.17
12757;BME280;31601;48.042;12.240;2022-08-26T06:56:15;95972.28;;;23.79;58.44
12757;BME280;31601;48.042;12.240;2022-08-26T06:58:42;95973.59;;;23.82;57.84
12757;BME280;31601;48.042;12.240;2022-08-26T07:01:16;95971.25;;;23.65;58.99
12757;BME280;31601;48.042;12.240;2022-08-26T07:03:43;95966.53;;;24.11;58.80
12757;BME280;31601;48.042;12.240;2022-08-26T07:06:10;95970.41;;;24.74;56.87
12757;BME280;31601;48.042;12.240;2022-08-26T07:08:37;95965.56;;;24.37;57.83
12757;BME280;31601;48.042;12.240;2022-08-26T07:11:04;95968.47;;;24.45;57.20
12757;BME280;31601;48.042;12.240;2022-08-26T07:13:32;95963.66;;;24.42;57.33
12757;BME280;31601;48.042;12.240;2022-08-26T07:16:02;95968.47;;;24.01;58.46
12757;BME280;31601;48.042;12.240;2022-08-26T07:18:28;95979.47;;;24.44;58.95
12757;BME280;31601;48.042;12.240;2022-08-26T07:20:55;95966.66;;;24.75;56.49
12757;BME280;31601;48.042;12.240;2022-08-26T07:23:21;95961.22;;;24.86;54.74
12757;BME280;31601;48.042;12.240;2022-08-26T07:25:47;95966.72;;;24.70;54.79
12757;BME280;31601;48.042;12.240;2022-08-26T07:28:14;95967.28;;;24.67;55.10
12757;BME280;31601;48.042;12.240;2022-08-26T07:30:42;95970.63;;;24.83;54.14
12757;BME280;31601;48.042;12.240;2022-08-26T07:33:08;95968.78;;;24.78;54.63
12757;BME280;31601;48.042;12.240;2022-08-26T07:35:34;95966.31;;;25.16;53.48
12757;BME280;31601;48.042;12.240;2022-08-26T07:38:02;95967.59;;;25.48;52.43
12757;BME280;31601;48.042;12.240;2022-08-26T07:40:28;95972.75;;;25.69;52.39
12757;BME280;31601;48.042;12.240;2022-08-26T07:42:55;95971.38;;;25.47;53.01
12757;BME280;31601;48.042;12.240;2022-08-26T07:45:22;95977.75;;;25.51;52.83
12757;BME280;31601;48.042;12.240;2022-08-26T07:47:50;95979.00;;;24.76;55.80
12757;BME280;31601;48.042;12.240;2022-08-26T07:50:17;95976.28;;;25.40;53.51
12757;BME280;31601;48.042;12.240;2022-08-26T07:52:43;95971.66;;;25.16;54.94
12757;BME280;31601;48.042;12.240;2022-08-26T07:55:10;95978.16;;;24.81;55.21
12757;BME280;31601;48.042;12.240;2022-08-26T07:57:36;95966.88;;;25.43;53.85
12757;BME280;31601;48.042;12.240;2022-08-26T08:00:04;95966.03;;;25.90;52.98
12757;BME280;31601;48.042;12.240;2022-08-26T08:02:32;95968.34;;;25.78;53.25
12757;BME280;31601;48.042;12.240;2022-08-26T08:05:00;95960.88;;;25.22;53.84
12757;BME280;31601;48.042;12.240;2022-08-26T08:09:53;95967.16;;;25.12;54.48
12757;BME280;31601;48.042;12.240;2022-08-26T08:12:20;95961.03;;;25.35;54.00
12757;BME280;31601;48.042;12.240;2022-08-26T08:14:46;95969.78;;;25.70;53.26
12757;BME280;31601;48.042;12.240;2022-08-26T08:17:14;95968.97;;;25.46;53.00
12757;BME280;31601;48.042;12.240;2022-08-26T08:19:41;95961.53;;;25.62;52.95
12757;BME280;31601;48.042;12.240;2022-08-26T08:22:09;95957.66;;;25.49;53.36
12757;BME280;31601;48.042;12.240;2022-08-26T08:24:36;95963.47;;;25.80;53.42
12757;BME280;31601;48.042;12.240;2022-08-26T08:27:03;95960.66;;;26.48;51.56
12757;BME280;31601;48.042;12.240;2022-08-26T08:29:30;95962.22;;;26.73;50.36
12757;BME280;31601;48.042;12.240;2022-08-26T08:31:57;95952.75;;;27.22;49.60
12757;BME280;31601;48.042;12.240;2022-08-26T08:34:26;95963.38;;;26.29;51.35
12757;BME280;31601;48.042;12.240;2022-08-26T08:36:53;95959.44;;;26.59;51.31
12757;BME280;31601;48.042;12.240;2022-08-26T08:39:21;95955.66;;;26.79;50.78
12757;BME280;31601;48.042;12.240;2022-08-26T08:41:55;95958.97;;;26.19;51.63
12757;BME280;31601;48.042;12.240;2022-08-26T08:44:25;95956.25;;;25.57;52.66
12757;BME280;31601;48.042;12.240;2022-08-26T08:46:55;95947.50;;;25.46;52.93
12757;BME280;31601;48.042;12.240;2022-08-26T08:49:23;95956.63;;;25.69;53.18
12757;BME280;31601;48.042;12.240;2022-08-26T08:51:53;95960.31;;;26.35;52.47
12757;BME280;31601;48.042;12.240;2022-08-26T08:54:22;95953.84;;;26.55;51.10
12757;BME280;31601;48.042;12.240;2022-08-26T08:56:54;95955.28;;;26.48;51.03
12757;BME280;31601;48.042;12.240;2022-08-26T08:59:26;95957.34;;;26.18;52.18
12757;BME280;31601;48.042;12.240;2022-08-26T09:02:04;95947.38;;;26.56;51.53
12757;BME280;31601;48.042;12.240;2022-08-26T09:05:02;95949.97;;;26.61;50.62
12757;BME280;31601;48.042;12.240;2022-08-26T09:07:32;95959.22;;;26.74;51.36
12757;BME280;31601;48.042;12.240;2022-08-26T09:10:08;95954.22;;;27.01;50.28
12757;BME280;31601;48.042;12.240;2022-08-26T09:12:41;95949.81;;;27.51;49.15
12757;BME280;31601;48.042;12.240;2022-08-26T09:15:15;95948.97;;;27.79;47.12
12757;BME280;31601;48.042;12.240;2022-08-26T09:17:49;95946.09;;;28.03;45.09
12757;BME280;31601;48.042;12.240;2022-08-26T09:20:19;95948.78;;;27.89;45.08
12757;BME280;31601;48.042;12.240;2022-08-26T09:22:50;95952.38;;;27.71;44.46
12757;BME280;31601;48.042;12.240;2022-08-26T09:25:18;95950.56;;;27.94;45.51
12757;BME280;31601;48.042;12.240;2022-08-26T09:27:47;95941.81;;;28.84;45.01
12757;BME280;31601;48.042;12.240;2022-08-26T09:30:23;95944.13;;;28.54;44.90
12757;BME280;31601;48.042;12.240;2022-08-26T09:32:58;95942.19;;;27.95;45.54
12757;BME280;31601;48.042;12.240;2022-08-26T09:35:27;95950.19;;;27.45;47.15
12757;BME280;31601;48.042;12.240;2022-08-26T09:37:55;95945.97;;;27.80;46.32
12757;BME280;31601;48.042;12.240;2022-08-26T09:40:27;95939.53;;;28.32;45.96
12757;BME280;31601;48.042;12.240;2022-08-26T09:43:09;95934.88;;;28.10;46.34
12757;BME280;31601;48.042;12.240;2022-08-26T09:45:39;95938.84;;;28.26;47.61
12757;BME280;31601;48.042;12.240;2022-08-26T09:48:07;95935.13;;;28.81;45.67
12757;BME280;31601;48.042;12.240;2022-08-26T09:50:35;95934.13;;;28.54;45.34
12757;BME280;31601;48.042;12.240;2022-08-26T09:53:12;95920.91;;;29.21;44.47
12757;BME280;31601;48.042;12.240;2022-08-26T09:55:43;95921.59;;;29.35;43.53
12757;BME280;31601;48.042;12.240;2022-08-26T09:58:12;95918.41;;;29.33;44.07
12757;BME280;31601;48.042;12.240;2022-08-26T10:00:40;95922.50;;;29.71;43.15
12757;BME280;31601;48.042;12.240;2022-08-26T10:03:09;95910.28;;;29.33;43.67
12757;BME280;31601;48.042;12.240;2022-08-26T10:05:42;95901.25;;;28.52;43.88
12757;BME280;31601;48.042;12.240;2022-08-26T10:08:22;95903.44;;;29.27;44.04
12757;BME280;31601;48.042;12.240;2022-08-26T10:10:50;95898.94;;;29.14;43.54
12757;BME280;31601;48.042;12.240;2022-08-26T10:13:22;95896.66;;;29.38;42.29
12757;BME280;31601;48.042;12.240;2022-08-26T10:15:56;95888.56;;;29.38;43.29
12757;BME280;31601;48.042;12.240;2022-08-26T10:18:28;95889.59;;;29.77;42.71
12757;BME280;31601;48.042;12.240;2022-08-26T10:21:01;95885.81;;;29.96;41.63
12757;BME280;31601;48.042;12.240;2022-08-26T10:23:30;95879.59;;;30.30;41.84
12757;BME280;31601;48.042;12.240;2022-08-26T10:26:03;95878.19;;;30.33;41.89
12757;BME280;31601;48.042;12.240;2022-08-26T10:28:36;95879.16;;;30.37;41.80
12757;BME280;31601;48.042;12.240;2022-08-26T10:31:16;95866.94;;;29.07;42.05
12757;BME280;31601;48.042;12.240;2022-08-26T10:33:43;95867.75;;;29.07;42.13
12757;BME280;31601;48.042;12.240;2022-08-26T10:36:14;95863.03;;;29.71;40.81
12757;BME280;31601;48.042;12.240;2022-08-26T10:38:58;95856.53;;;30.24;41.42
12757;BME280;31601;48.042;12.240;2022-08-26T10:41:30;95850.97;;;30.12;39.82
12757;BME280;31601;48.042;12.240;2022-08-26T10:43:59;95854.28;;;30.35;39.99
12757;BME280;31601;48.042;12.240;2022-08-26T10:46:28;95846.72;;;30.84;40.11
12757;BME280;31601;48.042;12.240;2022-08-26T10:49:02;95849.97;;;31.16;39.28
12757;BME280;31601;48.042;12.240;2022-08-26T10:51:33;95847.97;;;29.96;39.35
12757;BME280;31601;48.042;12.240;2022-08-26T10:54:06;95847.63;;;30.59;39.42
12757;BME280;31601;48.042;12.240;2022-08-26T10:56:42;95845.91;;;30.93;39.33
12757;BME280;31601;48.042;12.240;2022-08-26T10:59:17;95841.66;;;31.21;38.99
12757;BME280;31601;48.042;12.240;2022-08-26T11:01:49;95841.00;;;31.24;38.86
12757;BME280;31601;48.042;12.240;2022-08-26T11:04:26;95841.94;;;31.29;39.79
12757;BME280;31601;48.042;12.240;2022-08-26T11:07:33;95836.97;;;31.01;38.02
12757;BME280;31601;48.042;12.240;2022-08-26T11:10:03;95831.31;;;31.23;38.44
12757;BME280;31601;48.042;12.240;2022-08-26T11:12:50;95823.19;;;31.23;38.53
12757;BME280;31601;48.042;12.240;2022-08-26T11:18:42;95814.72;;;31.46;38.97
12757;BME280;31601;48.042;12.240;2022-08-26T11:24:40;95818.78;;;30.36;39.56
12757;BME280;31601;48.042;12.240;2022-08-26T11:27:08;95822.47;;;30.49;38.74
12757;BME280;31601;48.042;12.240;2022-08-26T11:29:59;95816.41;;;30.52;40.95
12757;BME280;31601;48.042;12.240;2022-08-26T11:32:45;95817.84;;;30.50;36.71
12757;BME280;31601;48.042;12.240;2022-08-26T11:38:20;95804.13;;;30.64;35.23
12757;BME280;31601;48.042;12.240;2022-08-26T11:41:07;95810.72;;;30.93;36.20
12757;BME280;31601;48.042;12.240;2022-08-26T11:43:36;95797.97;;;30.84;38.36
12757;BME280;31601;48.042;12.240;2022-08-26T11:46:05;95798.16;;;30.14;37.69
12757;BME280;31601;48.042;12.240;2022-08-26T11:48:35;95800.81;;;30.32;36.56
12757;BME280;31601;48.042;12.240;2022-08-26T11:51:04;95805.75;;;30.30;36.19
12757;BME280;31601;48.042;12.240;2022-08-26T11:53:35;95795.56;;;30.44;35.86
12757;BME280;31601;48.042;12.240;2022-08-26T11:56:06;95794.69;;;30.70;36.48
12757;BME280;31601;48.042;12.240;2022-08-26T11:58:35;95798.25;;;30.62;36.26
12757;BME280;31601;48.042;12.240;2022-08-26T12:01:07;95791.31;;;30.08;37.86
12757;BME280;31601;48.042;12.240;2022-08-26T12:03:38;95789.34;;;30.35;38.30
12757;BME280;31601;48.042;12.240;2022-08-26T12:06:11;95791.28;;;30.26;38.44
12757;BME280;31601;48.042;12.240;2022-08-26T12:08:41;95792.88;;;30.27;37.02
12757;BME280;31601;48.042;12.240;2022-08-26T12:11:11;95787.50;;;30.09;37.30
12757;BME280;31601;48.042;12.240;2022-08-26T12:13:38;95778.91;;;30.07;38.46
12757;BME280;31601;48.042;12.240;2022-08-26T12:16:05;95785.84;;;30.34;38.45
12757;BME280;31601;48.042;12.240;2022-08-26T12:18:34;95782.69;;;30.24;37.91
12757;BME280;31601;48.042;12.240;2022-08-26T12:21:11;95773.75;;;30.32;38.99
12757;BME280;31601;48.042;12.240;2022-08-26T12:23:42;95771.09;;;30.14;37.89
12757;BME280;31601;48.042;12.240;2022-08-26T12:26:13;95772.84;;;30.10;37.50
12757;BME280;31601;48.042;12.240;2022-08-26T12:28:45;95772.34;;;30.26;38.34
12757;BME280;31601;48.042;12.240;2022-08-26T12:31:20;95771.00;;;30.58;36.79
12757;BME280;31601;48.042;12.240;2022-08-26T12:33:49;95776.94;;;30.99;37.35
12757;BME280;31601;48.042;12.240;2022-08-26T12:36:22;95766.88;;;31.50;37.24
12757;BME280;31601;48.042;12.240;2022-08-26T12:38:50;95764.06;;;30.78;38.45
12757;BME280;31601;48.042;12.240;2022-08-26T12:41:40;95761.31;;;30.96;38.53
12757;BME280;31601;48.042;12.240;2022-08-26T12:44:07;95757.19;;;30.51;38.36
12757;BME280;31601;48.042;12.240;2022-08-26T12:46:34;95752.03;;;30.67;36.53
12757;BME280;31601;48.042;12.240;2022-08-26T12:49:00;95748.84;;;30.65;36.02
12757;BME280;31601;48.042;12.240;2022-08-26T12:51:29;95751.69;;;29.69;38.36
12757;BME280;31601;48.042;12.240;2022-08-26T12:53:58;95752.81;;;30.03;38.30
12757;BME280;31601;48.042;12.240;2022-08-26T12:56:29;95742.16;;;29.89;38.27
12757;BME280;31601;48.042;12.240;2022-08-26T12:59:04;95737.09;;;29.52;36.77
12757;BME280;31601;48.042;12.240;2022-08-26T13:01:40;95730.75;;;29.83;35.92
12757;BME280;31601;48.042;12.240;2022-08-26T13:04:36;95729.94;;;30.00;36.65
12757;BME280;31601;48.042;12.240;2022-08-26T13:07:14;95729.16;;;30.38;35.98
12757;BME280;31601;48.042;12.240;2022-08-26T13:09:44;95728.22;;;30.51;36.66
12757;BME280;31601;48.042;12.240;2022-08-26T13:12:10;95725.19;;;30.53;36.25
12757;BME280;31601;48.042;12.240;2022-08-26T13:14:37;95717.91;;;30.27;35.68